Main page
METAR-TAF:

METAR-TAF

Airports :

Agen, France

Agen La Garenne Airport

latitude: 44-11N, longitude: 000-36E, elevation: 61 m

Current weather observation

The report was made 17 minutes ago, at 04:30 UTC
Wind 3 kt from the East/Southeast
Temperature 5°C
Humidity 93%
Pressure 1011 hPa
Visibility 10 km or more
no clouds below 1500 m and no cumulonimbus

METAR: LFBA 270430Z AUTO 12003KT CAVOK 05/04 Q1011

Time: 06:47 (04:47 UTC)

Forecast

The report was made 14 hours and 47 minutes ago, at 14:00 UTC
Forecast valid from 26 at 15 UTC to 26 at 24 UTC
Wind 5 kt from the West/Northwest
Visibility 10 km or more
no clouds below 1500 m and no cumulonimbus

TAF: LFBA 261400Z 2615/2624 30005KT CAVOK

Weather observations and forecasts of more than 4000 airports (METAR and TAF reports).

The available stations are represented by yellow and red dots on the map.

Hover mouse over dot to see the name of the station.

Then click to see weather observations and forecasts.

To change the map : click on the green buttons with a black cross to zoom in, on the green button with a dash to zoom out, or on the green arrows for adjacent maps.


METAR-TAF: